Time;durP1;ratioP1;P1;durP2;ratioP2;P2;SDS_P1;SDS_P2;PMS_P1;PMS_P2;Temp;Humidity;BMP_temperature;BMP_pressure;BME280_temperature;BME280_humidity;BME280_pressure;Samples;Min_cycle;Max_cycle;Signal;HPM_P1;HPM_P2
2021/05/23 00:00:42;;;;;;;3.33;2.67;;;22.80;43.90;;;;;;6161338;28;80938;-67
2021/05/23 00:03:43;;;;;;;4.43;2.92;;;22.80;43.60;;;;;;6197989;28;84086;-67
2021/05/23 00:06:43;;;;;;;5.88;2.80;;;22.80;43.70;;;;;;6180139;28;81443;-67
2021/05/23 00:09:44;;;;;;;4.72;3.42;;;22.80;43.70;;;;;;6148766;28;82769;-66
2021/05/23 00:12:46;;;;;;;3.63;2.80;;;22.80;43.70;;;;;;6155822;28;81047;-67
2021/05/23 00:15:46;;;;;;;3.78;3.15;;;22.70;43.70;;;;;;6161016;28;80526;-66
2021/05/23 00:18:47;;;;;;;4.63;2.88;;;22.80;43.60;;;;;;6179632;28;81014;-66
2021/05/23 00:21:47;;;;;;;5.05;3.50;;;22.70;43.70;;;;;;6178534;28;80442;-66
2021/05/23 00:24:48;;;;;;;4.18;3.22;;;22.70;43.90;;;;;;6172721;28;81896;-67
2021/05/23 00:27:48;;;;;;;4.40;3.38;;;22.70;43.60;;;;;;6159138;28;83283;-67
2021/05/23 00:30:49;;;;;;;4.70;3.20;;;22.70;43.90;;;;;;6158460;28;83447;-67
2021/05/23 00:33:49;;;;;;;3.67;2.85;;;22.70;43.70;;;;;;6165859;28;80337;-67
2021/05/23 00:36:51;;;;;;;4.70;3.38;;;22.80;43.90;;;;;;6158611;28;80882;-67
2021/05/23 00:39:52;;;;;;;5.80;3.30;;;22.70;43.80;;;;;;6157008;28;80686;-67
2021/05/23 00:42:52;;;;;;;3.92;2.83;;;22.70;43.80;;;;;;6196801;28;81508;-68
2021/05/23 00:45:53;;;;;;;6.13;3.08;;;22.70;43.60;;;;;;6182405;28;82523;-67
2021/05/23 00:48:53;;;;;;;4.10;2.75;;;22.70;43.60;;;;;;6182768;28;82841;-68
2021/05/23 00:51:54;;;;;;;3.80;2.75;;;22.70;43.70;;;;;;6176888;28;80416;-68
2021/05/23 00:54:54;;;;;;;5.13;3.33;;;22.70;43.70;;;;;;6157847;28;80820;-68
2021/05/23 00:57:55;;;;;;;4.65;2.75;;;22.70;43.70;;;;;;6160305;28;83161;-68
2021/05/23 01:00:55;;;;;;;4.22;2.72;;;22.70;43.70;;;;;;6180736;28;80352;-67
2021/05/23 01:03:56;;;;;;;4.43;3.10;;;22.70;43.40;;;;;;6176807;28;80835;-68
2021/05/23 01:06:57;;;;;;;4.05;2.58;;;22.70;43.50;;;;;;6153043;28;80665;-67
2021/05/23 01:09:57;;;;;;;4.05;2.72;;;22.70;43.80;;;;;;6162377;28;80798;-67
2021/05/23 01:12:59;;;;;;;4.43;2.78;;;22.70;43.40;;;;;;6180464;28;80544;-68
2021/05/23 01:15:59;;;;;;;5.03;3.05;;;22.70;43.70;;;;;;6181024;28;81433;-67
2021/05/23 01:19:00;;;;;;;4.10;2.92;;;22.70;43.70;;;;;;6176044;28;81903;-67
2021/05/23 01:22:00;;;;;;;3.45;2.55;;;22.70;43.40;;;;;;6162362;28;81337;-68
2021/05/23 01:25:01;;;;;;;4.65;2.47;;;22.70;43.50;;;;;;6179972;28;83535;-67
2021/05/23 01:28:01;;;;;;;4.07;2.33;;;22.70;43.50;;;;;;6196365;28;80640;-68
2021/05/23 01:31:02;;;;;;;3.58;2.40;;;22.70;43.60;;;;;;6181124;28;80524;-68
2021/05/23 01:34:02;;;;;;;4.05;2.33;;;22.70;43.40;;;;;;6181624;28;80294;-67
2021/05/23 01:37:03;;;;;;;4.22;2.60;;;22.70;43.50;;;;;;6180840;28;80549;-67
2021/05/23 01:40:04;;;;;;;3.78;2.13;;;22.70;43.50;;;;;;6169150;28;79992;-68
2021/05/23 01:43:04;;;;;;;4.05;2.53;;;22.70;43.30;;;;;;6153703;28;82236;-68
2021/05/23 01:46:05;;;;;;;4.72;2.30;;;22.70;43.30;;;;;;6156498;28;80433;-68
2021/05/23 01:49:05;;;;;;;3.50;2.60;;;22.70;43.30;;;;;;6162335;28;80271;-68
2021/05/23 01:52:06;;;;;;;3.08;2.05;;;22.70;43.20;;;;;;6188141;28;80603;-67
2021/05/23 01:55:06;;;;;;;3.05;2.03;;;22.60;43.20;;;;;;6155338;28;80897;-68
2021/05/23 01:58:07;;;;;;;3.90;2.70;;;22.60;43.00;;;;;;6153465;28;81361;-68
2021/05/23 02:01:07;;;;;;;3.30;2.17;;;22.60;43.10;;;;;;6159409;28;80867;-68
2021/05/23 02:04:09;;;;;;;2.58;2.05;;;22.60;43.00;;;;;;6178679;28;80611;-68
2021/05/23 02:07:09;;;;;;;3.08;2.10;;;22.60;42.90;;;;;;6173475;28;80510;-68
2021/05/23 02:10:10;;;;;;;3.50;2.00;;;22.60;43.00;;;;;;6156549;28;81300;-68
2021/05/23 02:13:11;;;;;;;3.03;2.03;;;22.60;42.80;;;;;;6156779;28;80882;-68
2021/05/23 02:16:11;;;;;;;4.10;2.47;;;22.60;43.20;;;;;;6156601;28;80342;-68
2021/05/23 02:19:12;;;;;;;3.15;2.17;;;22.60;43.00;;;;;;6163326;28;80225;-68
2021/05/23 02:22:12;;;;;;;3.92;2.40;;;22.60;43.00;;;;;;6168772;28;80503;-67
2021/05/23 02:25:12;;;;;;;2.30;1.83;;;22.60;43.10;;;;;;6168430;28;81738;-68
2021/05/23 02:28:13;;;;;;;2.97;1.90;;;22.60;43.10;;;;;;6158850;28;80908;-67
2021/05/23 02:31:13;;;;;;;2.47;1.85;;;22.60;42.70;;;;;;6201204;28;81525;-67
2021/05/23 02:34:14;;;;;;;2.97;2.03;;;22.60;42.90;;;;;;6181964;28;86872;-68
2021/05/23 02:37:15;;;;;;;4.55;2.17;;;22.60;42.90;;;;;;6168589;28;81184;-68
2021/05/23 02:40:15;;;;;;;2.78;1.92;;;22.60;43.10;;;;;;6181191;28;80217;-69
2021/05/23 02:43:16;;;;;;;2.33;1.80;;;22.60;43.00;;;;;;6162333;28;81526;-69
2021/05/23 02:46:16;;;;;;;3.53;2.22;;;22.60;42.70;;;;;;6161356;28;81395;-69
2021/05/23 02:49:17;;;;;;;2.60;1.80;;;22.60;42.80;;;;;;6168773;28;81451;-69
2021/05/23 02:52:17;;;;;;;3.50;2.10;;;22.60;42.80;;;;;;6183220;28;80374;-68
2021/05/23 02:55:18;;;;;;;2.88;1.63;;;22.60;42.80;;;;;;6182060;28;80515;-68
2021/05/23 02:58:18;;;;;;;2.75;1.92;;;22.60;42.70;;;;;;6170810;28;80329;-68
2021/05/23 03:01:19;;;;;;;2.50;1.70;;;22.60;42.60;;;;;;6158422;28;80931;-69
2021/05/23 03:04:19;;;;;;;2.47;1.63;;;22.60;42.70;;;;;;6168113;28;80959;-70
2021/05/23 03:07:20;;;;;;;2.42;1.92;;;22.60;42.80;;;;;;6184359;28;80402;-69
2021/05/23 03:10:20;;;;;;;3.35;2.25;;;22.60;42.90;;;;;;6179688;28;80628;-68
2021/05/23 03:13:21;;;;;;;2.28;1.50;;;22.60;42.70;;;;;;6164705;28;80457;-67
2021/05/23 03:16:21;;;;;;;3.03;1.80;;;22.60;42.70;;;;;;6161063;28;80537;-68
2021/05/23 03:19:22;;;;;;;4.30;1.80;;;22.60;42.60;;;;;;6182464;28;80897;-68
2021/05/23 03:22:22;;;;;;;3.22;2.25;;;22.60;42.90;;;;;;6181938;28;81773;-68
2021/05/23 03:25:23;;;;;;;3.13;1.80;;;22.60;42.90;;;;;;6186273;28;82310;-68
2021/05/23 03:28:23;;;;;;;2.83;1.75;;;22.60;42.90;;;;;;6166966;28;81332;-67
2021/05/23 03:31:24;;;;;;;2.63;1.90;;;22.60;42.90;;;;;;6174207;28;83231;-68
2021/05/23 03:34:24;;;;;;;2.42;1.67;;;22.60;42.90;;;;;;6162827;28;80606;-68
2021/05/23 03:37:25;;;;;;;2.92;1.90;;;22.60;43.00;;;;;;6180579;28;80240;-68
2021/05/23 03:40:25;;;;;;;2.35;1.80;;;22.60;43.10;;;;;;6174237;28;80632;-68
2021/05/23 03:43:26;;;;;;;1.70;1.60;;;22.60;43.00;;;;;;6166987;28;80574;-66
2021/05/23 03:46:26;;;;;;;3.25;1.95;;;22.60;42.80;;;;;;6178571;28;80969;-68
2021/05/23 03:49:27;;;;;;;2.17;1.50;;;22.60;43.10;;;;;;6180346;28;81570;-68
2021/05/23 03:52:28;;;;;;;2.38;1.58;;;22.60;43.10;;;;;;6171278;28;80863;-67
2021/05/23 03:55:28;;;;;;;2.90;1.50;;;22.60;43.10;;;;;;6166184;28;84738;-67
2021/05/23 03:58:28;;;;;;;2.67;1.55;;;22.60;43.10;;;;;;6169323;28;80440;-69
2021/05/23 04:01:29;;;;;;;3.00;1.50;;;22.60;43.00;;;;;;6166631;28;84707;-69
2021/05/23 04:04:46;;;;;;;2.92;1.67;;;22.60;43.00;;;;;;6176408;28;80517;-68
2021/05/23 04:07:46;;;;;;;2.22;1.52;;;22.50;43.10;;;;;;6155673;28;80228;-69
2021/05/23 04:10:55;;;;;;;2.08;1.60;;;22.60;43.40;;;;;;6170775;28;80496;-69
2021/05/23 04:13:55;;;;;;;1.95;1.50;;;22.60;43.20;;;;;;6169760;28;81599;-68
2021/05/23 04:16:56;;;;;;;1.60;1.50;;;22.60;43.40;;;;;;6170508;28;80764;-66
2021/05/23 04:19:56;;;;;;;2.28;1.55;;;22.60;43.20;;;;;;6169649;28;80390;-68
2021/05/23 04:22:57;;;;;;;2.78;1.60;;;22.50;43.40;;;;;;6157899;28;83574;-67
2021/05/23 04:25:57;;;;;;;1.90;1.70;;;22.60;43.40;;;;;;6170600;28;80565;-69
2021/05/23 04:28:58;;;;;;;3.22;1.50;;;22.60;43.50;;;;;;6169505;28;80824;-68
2021/05/23 04:31:59;;;;;;;6.32;1.70;;;22.60;43.80;;;;;;6169879;28;80872;-67
2021/05/23 04:35:00;;;;;;;1.60;1.50;;;22.60;43.60;;;;;;6180012;28;81100;-69
2021/05/23 04:38:01;;;;;;;1.45;1.35;;;22.60;43.60;;;;;;6162111;28;80764;-67
2021/05/23 04:41:02;;;;;;;2.58;1.48;;;22.60;43.90;;;;;;6170476;28;80137;-67
2021/05/23 04:44:04;;;;;;;1.85;1.35;;;22.60;43.00;;;;;;6165442;28;80536;-66
2021/05/23 04:47:05;;;;;;;2.03;1.33;;;22.60;43.30;;;;;;6156798;28;81138;-68
2021/05/23 04:50:05;;;;;;;2.17;1.55;;;22.60;44.10;;;;;;6172002;28;80466;-64
2021/05/23 04:53:06;;;;;;;2.50;1.60;;;22.60;43.40;;;;;;6177304;28;80848;-66
2021/05/23 04:56:07;;;;;;;1.88;1.52;;;22.60;44.20;;;;;;6162760;28;80687;-65
2021/05/23 04:59:07;;;;;;;2.72;1.38;;;22.70;43.60;;;;;;6156488;28;80574;-67
2021/05/23 05:02:08;;;;;;;2.25;1.50;;;22.60;44.30;;;;;;6171808;28;80740;-66
2021/05/23 05:05:08;;;;;;;2.95;2.15;;;22.70;44.40;;;;;;6166983;28;80953;-66
2021/05/23 05:08:09;;;;;;;1.73;1.50;;;22.70;44.10;;;;;;6171710;28;80613;-66
2021/05/23 05:11:09;;;;;;;2.25;1.52;;;22.60;44.80;;;;;;6165976;28;84678;-66
2021/05/23 05:14:10;;;;;;;3.33;1.42;;;22.60;44.60;;;;;;6169591;28;80698;-67
2021/05/23 05:17:11;;;;;;;2.22;1.75;;;22.70;44.80;;;;;;6166539;28;80985;-67
2021/05/23 05:20:11;;;;;;;4.15;1.95;;;22.70;44.90;;;;;;6153852;28;80658;-68
2021/05/23 05:23:12;;;;;;;4.57;2.05;;;22.70;45.00;;;;;;6155897;28;82016;-70
2021/05/23 05:26:13;;;;;;;1.95;1.20;;;22.70;44.90;;;;;;6170384;28;80561;-68
2021/05/23 05:29:13;;;;;;;4.50;1.50;;;22.70;45.30;;;;;;6180310;28;81106;-64
2021/05/23 05:32:14;;;;;;;2.80;2.17;;;22.80;44.70;;;;;;6154046;28;80522;-67
2021/05/23 05:35:14;;;;;;;2.22;1.70;;;22.80;44.40;;;;;;6172573;28;80524;-68
2021/05/23 05:38:15;;;;;;;1.52;1.42;;;22.80;44.70;;;;;;6174946;28;80789;-66
2021/05/23 05:41:15;;;;;;;2.03;1.52;;;22.70;44.00;;;;;;6180580;28;80285;-68
2021/05/23 05:44:16;;;;;;;5.07;1.77;;;22.70;44.90;;;;;;6180575;28;80914;-67
2021/05/23 05:47:16;;;;;;;3.03;1.88;;;22.80;45.30;;;;;;6161949;28;80586;-68
2021/05/23 05:50:17;;;;;;;9.18;3.00;;;22.80;45.10;;;;;;6171959;28;80418;-67
2021/05/23 05:53:17;;;;;;;3.83;2.00;;;22.80;45.80;;;;;;6156555;28;81102;-67
2021/05/23 05:56:18;;;;;;;4.05;2.65;;;22.80;45.80;;;;;;6153914;28;81466;-67
2021/05/23 05:59:18;;;;;;;4.82;2.95;;;22.80;46.10;;;;;;6170411;28;80532;-68
2021/05/23 06:02:19;;;;;;;4.72;2.70;;;22.80;46.30;;;;;;6164306;28;80433;-68
2021/05/23 06:05:19;;;;;;;5.35;2.70;;;22.80;46.30;;;;;;6172850;28;80482;-67
2021/05/23 06:08:21;;;;;;;7.68;2.33;;;22.90;46.60;;;;;;6163001;28;80462;-69
2021/05/23 06:11:22;;;;;;;5.32;2.75;;;22.90;46.90;;;;;;6148485;28;80515;-67
2021/05/23 06:14:22;;;;;;;8.73;3.05;;;22.90;46.80;;;;;;6165655;28;81603;-68
2021/05/23 06:17:23;;;;;;;6.22;2.70;;;22.90;47.10;;;;;;6179655;28;81695;-67
2021/05/23 06:20:23;;;;;;;4.47;2.53;;;22.90;47.20;;;;;;6162669;28;80716;-68
2021/05/23 06:23:24;;;;;;;4.68;2.20;;;23.00;47.20;;;;;;6154100;28;84847;-65
2021/05/23 06:26:25;;;;;;;11.63;2.60;;;23.00;47.20;;;;;;6171891;28;81214;-66
2021/05/23 06:29:25;;;;;;;5.68;2.38;;;23.00;47.30;;;;;;6161859;28;83214;-67
2021/05/23 06:32:26;;;;;;;12.50;2.42;;;23.00;47.10;;;;;;6154460;28;80668;-66
2021/05/23 06:35:26;;;;;;;4.75;2.10;;;23.00;47.10;;;;;;6155390;28;81692;-67
2021/05/23 06:38:27;;;;;;;8.18;2.55;;;23.00;47.00;;;;;;6171195;28;80438;-68
2021/05/23 06:41:27;;;;;;;12.68;2.58;;;23.00;47.00;;;;;;6161968;28;80703;-68
2021/05/23 06:44:28;;;;;;;20.35;2.97;;;23.00;47.30;;;;;;6151287;28;80939;-68
2021/05/23 06:47:28;;;;;;;11.05;2.30;;;23.00;47.00;;;;;;6168061;28;80914;-67
2021/05/23 06:50:29;;;;;;;14.25;2.08;;;23.00;47.60;;;;;;6177855;28;80273;-67
2021/05/23 06:53:29;;;;;;;10.85;2.50;;;23.00;47.10;;;;;;6176609;28;81660;-67
2021/05/23 06:56:30;;;;;;;8.15;2.40;;;23.00;46.70;;;;;;6173391;28;80331;-67
2021/05/23 06:59:30;;;;;;;12.15;2.00;;;23.00;46.90;;;;;;6156191;28;80769;-69
2021/05/23 07:02:31;;;;;;;12.40;2.20;;;23.00;46.30;;;;;;6170397;28;81666;-67
2021/05/23 07:05:32;;;;;;;9.13;2.20;;;23.00;46.50;;;;;;6180323;28;81581;-68
2021/05/23 07:08:32;;;;;;;7.63;1.92;;;23.00;46.60;;;;;;6164715;28;81528;-68
2021/05/23 07:11:33;;;;;;;27.52;8.23;;;23.00;46.20;;;;;;6159014;28;80534;-68
2021/05/23 07:14:33;;;;;;;418.23;144.57;;;23.00;46.20;;;;;;6158093;28;81206;-65
2021/05/23 07:17:34;;;;;;;356.58;118.70;;;23.00;46.30;;;;;;6152234;28;85697;-68
2021/05/23 07:20:34;;;;;;;260.45;89.07;;;23.00;46.40;;;;;;6165432;28;86519;-66
2021/05/23 07:23:35;;;;;;;264.30;94.15;;;23.00;46.20;;;;;;6178762;28;85751;-68
2021/05/23 07:26:35;;;;;;;291.75;96.40;;;23.00;46.00;;;;;;6178428;28;83696;-67
2021/05/23 07:29:36;;;;;;;262.35;87.68;;;23.00;45.80;;;;;;6184644;28;85929;-71
2021/05/23 07:32:36;;;;;;;240.50;81.95;;;23.00;46.00;;;;;;6172577;28;82939;-68
2021/05/23 07:35:37;;;;;;;212.38;74.78;;;23.00;45.80;;;;;;6160090;28;83464;-66
2021/05/23 07:38:37;;;;;;;187.15;70.13;;;23.00;45.90;;;;;;6167798;28;84081;-69
2021/05/23 07:41:38;;;;;;;186.45;71.07;;;23.00;46.50;;;;;;6185107;28;83630;-66
2021/05/23 07:44:38;;;;;;;158.82;56.38;;;23.00;46.60;;;;;;6147362;28;83437;-68
2021/05/23 07:47:39;;;;;;;148.23;55.38;;;23.00;46.30;;;;;;6172639;28;83301;-68
2021/05/23 07:50:39;;;;;;;153.13;55.38;;;23.00;46.70;;;;;;6178263;28;86444;-68
2021/05/23 07:53:40;;;;;;;146.13;53.67;;;23.00;47.00;;;;;;6179287;28;83581;-68
2021/05/23 07:56:45;;;;;;;146.20;51.58;;;23.00;47.20;;;;;;6159606;28;83408;-68
2021/05/23 07:59:45;;;;;;;135.23;50.67;;;23.00;47.90;;;;;;6156442;28;83649;-67
2021/05/23 08:02:46;;;;;;;133.43;47.50;;;23.10;48.40;;;;;;6154763;28;83219;-67
2021/05/23 08:05:46;;;;;;;141.80;48.42;;;23.10;49.40;;;;;;6168808;28;83069;-67
2021/05/23 08:08:47;;;;;;;124.75;44.67;;;23.10;51.30;;;;;;6172000;28;83291;-68
2021/05/23 08:11:47;;;;;;;122.90;44.03;;;23.10;50.90;;;;;;6158652;28;83249;-69
2021/05/23 08:14:48;;;;;;;127.28;43.45;;;23.10;53.20;;;;;;6157992;28;85776;-68
2021/05/23 08:17:52;;;;;;;117.70;41.08;;;23.20;54.70;;;;;;6174450;28;83186;-68
2021/05/23 08:20:55;;;;;;;106.28;39.42;;;23.20;54.20;;;;;;6192416;28;84117;-64
2021/05/23 08:23:56;;;;;;;79.78;28.88;;;23.20;52.90;;;;;;6178622;28;83533;-66
2021/05/23 08:26:56;;;;;;;59.95;19.73;;;23.20;48.30;;;;;;6178112;28;84129;-67
2021/05/23 08:29:57;;;;;;;42.13;14.90;;;23.10;46.20;;;;;;6183923;28;84543;-62
2021/05/23 08:32:58;;;;;;;32.28;11.52;;;23.10;45.40;;;;;;6177088;28;84098;-63
2021/05/23 08:35:58;;;;;;;22.08;7.20;;;23.00;43.90;;;;;;6179164;28;83027;-65
2021/05/23 08:38:59;;;;;;;14.70;5.47;;;23.00;42.30;;;;;;6194969;28;81886;-68
2021/05/23 08:41:59;;;;;;;9.77;4.50;;;23.00;42.10;;;;;;6148199;28;80871;-65
2021/05/23 08:45:00;;;;;;;15.25;5.10;;;23.00;41.10;;;;;;6176745;28;82289;-69
2021/05/23 08:48:00;;;;;;;16.90;5.72;;;23.00;41.90;;;;;;6172059;28;80577;-68
2021/05/23 08:51:01;;;;;;;13.55;4.85;;;23.00;42.80;;;;;;6156892;28;81249;-67
2021/05/23 08:54:02;;;;;;;12.45;4.68;;;23.00;42.90;;;;;;6153056;28;80686;-67
2021/05/23 08:57:03;;;;;;;6.47;2.83;;;23.10;43.30;;;;;;6185754;28;81045;-66
2021/05/23 09:00:04;;;;;;;5.10;2.42;;;23.10;41.60;;;;;;6151999;27;81290;-67
2021/05/23 09:03:04;;;;;;;12.30;4.30;;;23.10;39.80;;;;;;6149187;28;87219;-68
2021/05/23 09:06:06;;;;;;;37.38;4.53;;;23.10;42.00;;;;;;6151767;27;80467;-67
2021/05/23 09:09:07;;;;;;;6.47;2.50;;;23.10;41.50;;;;;;6145984;28;81219;-64
2021/05/23 09:12:07;;;;;;;5.95;3.22;;;23.10;39.70;;;;;;6153135;28;80682;-65
2021/05/23 09:15:08;;;;;;;11.77;2.88;;;23.00;39.50;;;;;;6152411;28;80508;-65
2021/05/23 09:18:09;;;;;;;6.22;2.17;;;23.00;39.00;;;;;;6157421;28;80315;-67
2021/05/23 09:21:09;;;;;;;4.55;2.55;;;23.00;37.20;;;;;;6175461;28;81430;-68
2021/05/23 09:24:10;;;;;;;4.72;1.50;;;23.00;37.50;;;;;;6157672;28;80693;-67
2021/05/23 09:27:10;;;;;;;1.83;1.25;;;22.90;36.10;;;;;;6166863;28;80298;-68
2021/05/23 09:30:13;;;;;;;6.57;1.52;;;22.90;36.10;;;;;;6154353;28;83074;-67
2021/05/23 09:33:16;;;;;;;2.65;1.55;;;22.90;36.70;;;;;;6179530;28;83247;-68
2021/05/23 09:36:17;;;;;;;7.93;1.63;;;22.90;37.20;;;;;;6177873;28;80583;-68
2021/05/23 09:39:17;;;;;;;3.05;1.23;;;22.90;37.60;;;;;;6180993;28;80090;-68
2021/05/23 09:42:18;;;;;;;4.78;1.65;;;22.90;37.20;;;;;;6181316;28;81258;-68
2021/05/23 09:45:18;;;;;;;3.35;1.50;;;23.00;38.00;;;;;;6168898;28;80236;-68
2021/05/23 09:48:19;;;;;;;2.70;1.70;;;23.00;38.80;;;;;;6150788;28;81344;-67
2021/05/23 09:51:19;;;;;;;3.50;1.80;;;23.00;39.20;;;;;;6189773;28;86093;-67
2021/05/23 09:54:20;;;;;;;5.85;1.77;;;23.00;38.80;;;;;;6178905;28;86199;-67
2021/05/23 09:57:20;;;;;;;3.15;1.85;;;23.00;37.50;;;;;;6155182;28;80840;-67
2021/05/23 10:00:21;;;;;;;4.03;1.63;;;23.00;37.20;;;;;;6164947;28;81462;-67
2021/05/23 10:03:21;;;;;;;2.42;1.50;;;23.00;36.40;;;;;;6146371;28;80230;-67
2021/05/23 10:06:22;;;;;;;3.08;2.10;;;23.00;36.20;;;;;;6179678;28;81410;-68
2021/05/23 10:09:22;;;;;;;3.10;1.77;;;23.10;35.80;;;;;;6180048;28;81433;-67
2021/05/23 10:12:23;;;;;;;4.63;1.60;;;23.00;36.10;;;;;;6180710;28;80653;-67
2021/05/23 10:15:23;;;;;;;2.95;1.65;;;23.00;35.90;;;;;;6177731;28;80339;-67
2021/05/23 10:18:24;;;;;;;4.40;1.70;;;23.10;37.00;;;;;;6177251;28;83620;-67
2021/05/23 10:21:24;;;;;;;5.13;1.92;;;23.20;37.40;;;;;;6192868;28;80862;-67
2021/05/23 10:24:25;;;;;;;3.03;1.75;;;23.20;38.30;;;;;;6156812;28;80563;-67
2021/05/23 10:27:25;;;;;;;9.27;1.90;;;23.20;38.60;;;;;;6179892;28;80740;-65
2021/05/23 10:30:26;;;;;;;3.78;1.60;;;23.20;38.80;;;;;;6174252;28;80912;-66
2021/05/23 10:33:27;;;;;;;4.93;1.90;;;23.20;38.60;;;;;;6156204;28;80825;-65
2021/05/23 10:36:27;;;;;;;5.38;1.77;;;23.20;39.10;;;;;;6179972;28;82252;-65
2021/05/23 10:39:28;;;;;;;3.22;1.88;;;23.20;39.30;;;;;;6171727;28;82062;-68
2021/05/23 10:42:28;;;;;;;11.40;1.65;;;23.20;39.20;;;;;;6201690;28;82227;-68
2021/05/23 10:45:29;;;;;;;4.20;1.63;;;23.20;39.50;;;;;;6153365;28;81298;-67
2021/05/23 10:48:30;;;;;;;5.63;1.60;;;23.20;39.60;;;;;;6184192;28;80732;-67
2021/05/23 10:51:30;;;;;;;4.43;1.70;;;23.20;40.60;;;;;;6197708;28;80503;-66
2021/05/23 10:54:31;;;;;;;4.10;1.60;;;23.30;41.10;;;;;;6179841;28;80664;-66
2021/05/23 10:57:31;;;;;;;5.82;1.40;;;23.30;41.10;;;;;;6180791;28;81128;-67
2021/05/23 11:00:35;;;;;;;5.65;1.92;;;23.20;42.20;;;;;;6156880;28;80692;-70
2021/05/23 11:03:35;;;;;;;3.47;1.50;;;23.20;42.00;;;;;;6150182;28;80993;-67
2021/05/23 11:06:36;;;;;;;2.80;1.63;;;23.30;42.00;;;;;;6157771;28;81564;-69
2021/05/23 11:09:36;;;;;;;6.25;1.38;;;23.30;42.00;;;;;;6175026;28;81050;-69
2021/05/23 11:12:37;;;;;;;2.78;1.52;;;23.20;42.20;;;;;;6159319;28;80619;-71
2021/05/23 11:15:37;;;;;;;2.17;1.58;;;23.20;42.40;;;;;;6173707;27;80753;-72
2021/05/23 11:18:38;;;;;;;1.90;1.40;;;23.20;42.30;;;;;;6177178;28;81516;-70
2021/05/23 11:21:38;;;;;;;2.38;1.40;;;23.20;41.70;;;;;;6175072;28;80816;-68
2021/05/23 11:24:40;;;;;;;4.30;1.10;;;23.20;41.00;;;;;;6151116;28;80823;-68
2021/05/23 11:27:40;;;;;;;3.95;2.05;;;23.20;40.50;;;;;;6159097;28;80321;-69
2021/05/23 11:30:41;;;;;;;2.17;1.58;;;23.20;39.80;;;;;;6179148;28;80986;-69
2021/05/23 11:33:41;;;;;;;2.42;1.35;;;23.30;39.50;;;;;;6172810;28;80823;-68
2021/05/23 11:36:42;;;;;;;3.65;1.30;;;23.10;39.40;;;;;;6154617;28;80232;-69
2021/05/23 11:39:42;;;;;;;2.45;1.42;;;23.20;39.20;;;;;;6174921;28;81646;-69
2021/05/23 11:42:43;;;;;;;2.58;1.50;;;23.30;38.90;;;;;;6187604;28;80655;-68
2021/05/23 11:45:44;;;;;;;2.88;1.65;;;23.30;38.80;;;;;;6195609;28;83237;-68
2021/05/23 11:48:44;;;;;;;3.80;1.60;;;23.20;38.70;;;;;;6172179;28;81021;-71
2021/05/23 11:51:45;;;;;;;2.53;1.50;;;23.30;38.60;;;;;;6161457;28;80564;-68
2021/05/23 11:54:45;;;;;;;1.88;1.25;;;23.30;38.40;;;;;;6185010;28;81527;-69
2021/05/23 11:57:49;;;;;;;2.63;1.38;;;23.30;38.30;;;;;;6152744;28;80487;-69
2021/05/23 12:00:50;;;;;;;2.38;1.10;;;23.30;38.10;;;;;;6154056;28;80555;-69
2021/05/23 12:03:51;;;;;;;2.03;1.30;;;23.30;37.70;;;;;;6150430;28;81187;-69
2021/05/23 12:06:51;;;;;;;1.75;1.23;;;23.30;37.60;;;;;;6159087;28;81222;-70
2021/05/23 12:09:57;;;;;;;2.63;1.30;;;23.30;37.60;;;;;;6176670;28;80453;-70
2021/05/23 12:12:57;;;;;;;2.33;1.50;;;23.30;37.30;;;;;;6178713;28;80858;-68
2021/05/23 12:15:58;;;;;;;1.83;1.10;;;23.30;37.10;;;;;;6175863;28;80456;-69
2021/05/23 12:18:58;;;;;;;3.67;1.40;;;23.20;38.00;;;;;;6176124;28;80745;-70
2021/05/23 12:21:59;;;;;;;2.28;1.25;;;23.10;38.10;;;;;;6174353;28;80927;-68
2021/05/23 12:24:59;;;;;;;3.03;1.00;;;23.20;37.70;;;;;;6181824;28;81608;-68
2021/05/23 12:28:00;;;;;;;4.18;1.10;;;23.10;38.20;;;;;;6172581;28;80319;-68
2021/05/23 12:31:01;;;;;;;2.28;1.40;;;23.10;38.50;;;;;;6162919;28;80153;-68
2021/05/23 12:34:02;;;;;;;1.92;1.10;;;23.20;38.70;;;;;;6172747;28;80327;-69
2021/05/23 12:37:02;;;;;;;2.58;1.30;;;23.20;38.80;;;;;;6157159;28;80390;-68
2021/05/23 12:40:03;;;;;;;1.05;0.95;;;23.20;38.80;;;;;;6155784;28;80219;-67
2021/05/23 12:43:03;;;;;;;6.20;1.20;;;23.20;39.10;;;;;;6154140;28;80344;-69
2021/05/23 12:46:04;;;;;;;2.40;1.10;;;23.20;39.00;;;;;;6154018;28;80458;-69
2021/05/23 12:49:04;;;;;;;62.13;24.38;;;23.20;39.90;;;;;;6154813;28;80248;-70
2021/05/23 12:52:05;;;;;;;29.02;13.30;;;23.30;45.30;;;;;;6154092;28;84205;-69
2021/05/23 12:55:05;;;;;;;16.10;7.80;;;23.30;43.50;;;;;;6158512;28;83726;-68
2021/05/23 12:58:06;;;;;;;23.58;11.30;;;23.30;43.00;;;;;;6180224;28;83416;-69
2021/05/23 13:01:07;;;;;;;30.00;14.25;;;23.30;44.30;;;;;;6158031;28;83740;-69
2021/05/23 13:04:08;;;;;;;19.65;9.82;;;23.40;44.90;;;;;;6168350;28;84047;-68
2021/05/23 13:07:08;;;;;;;21.05;9.40;;;23.40;44.20;;;;;;6158630;28;82901;-67
2021/05/23 13:10:09;;;;;;;18.40;6.57;;;23.40;44.50;;;;;;6164118;28;80496;-68
2021/05/23 13:13:09;;;;;;;16.40;6.78;;;23.40;44.00;;;;;;6181292;28;81420;-66
2021/05/23 13:16:10;;;;;;;17.08;5.82;;;23.40;44.10;;;;;;6174603;28;80280;-66
2021/05/23 13:19:11;;;;;;;12.07;5.05;;;23.40;44.30;;;;;;6158794;28;80444;-64
2021/05/23 13:22:11;;;;;;;19.23;3.85;;;23.40;43.90;;;;;;6168096;28;80821;-66
2021/05/23 13:25:12;;;;;;;22.52;4.32;;;23.40;44.20;;;;;;6155999;28;80866;-67
2021/05/23 13:28:12;;;;;;;8.20;3.88;;;23.40;44.30;;;;;;6163960;28;80690;-67
2021/05/23 13:31:13;;;;;;;5.65;3.08;;;23.40;44.10;;;;;;6173758;28;80451;-67
2021/05/23 13:34:13;;;;;;;11.93;2.80;;;23.40;44.10;;;;;;6153068;28;80679;-65
2021/05/23 13:37:14;;;;;;;6.38;2.88;;;23.50;44.70;;;;;;6148604;28;80437;-66
2021/05/23 13:40:14;;;;;;;11.15;2.95;;;23.40;44.30;;;;;;6160031;28;81483;-64
2021/05/23 13:43:15;;;;;;;7.82;2.92;;;23.40;44.50;;;;;;6170236;28;81508;-64
2021/05/23 13:46:16;;;;;;;16.40;2.50;;;23.40;44.40;;;;;;6160661;28;81016;-64
2021/05/23 13:49:16;;;;;;;3.67;2.35;;;23.40;44.70;;;;;;6180077;28;80364;-67
2021/05/23 13:52:18;;;;;;;4.78;2.42;;;23.40;44.50;;;;;;6180768;28;80939;-67
2021/05/23 13:55:19;;;;;;;7.03;2.55;;;23.40;44.70;;;;;;6179537;28;80835;-67
2021/05/23 13:58:19;;;;;;;6.78;1.70;;;23.40;44.50;;;;;;6180310;28;80284;-67
2021/05/23 14:01:20;;;;;;;4.32;1.70;;;23.40;44.30;;;;;;6165856;28;81487;-70
2021/05/23 14:04:20;;;;;;;2.53;1.75;;;23.40;44.20;;;;;;6153649;28;80964;-68
2021/05/23 14:07:21;;;;;;;5.50;1.70;;;23.40;44.00;;;;;;6154472;28;80788;-70
2021/05/23 14:10:21;;;;;;;4.95;1.95;;;23.40;43.70;;;;;;6155429;28;80745;-70
2021/05/23 14:13:22;;;;;;;6.72;1.80;;;23.40;43.60;;;;;;6163867;28;81557;-69
2021/05/23 14:16:23;;;;;;;4.00;1.60;;;23.40;43.40;;;;;;6185007;28;80952;-70
2021/05/23 14:19:23;;;;;;;4.85;1.60;;;23.40;43.40;;;;;;6181432;28;82089;-69
2021/05/23 14:22:24;;;;;;;5.45;1.80;;;23.30;43.20;;;;;;6180088;28;81225;-69
2021/05/23 14:25:24;;;;;;;6.65;1.42;;;23.30;43.10;;;;;;6166444;28;84392;-69
2021/05/23 14:28:25;;;;;;;6.07;1.48;;;23.30;43.20;;;;;;6164294;28;81192;-69
2021/05/23 14:31:25;;;;;;;3.28;1.35;;;23.20;43.20;;;;;;6179476;28;80536;-69
2021/05/23 14:34:26;;;;;;;7.30;1.67;;;23.30;43.20;;;;;;6175435;28;80319;-68
2021/05/23 14:37:26;;;;;;;2.35;1.75;;;23.20;44.10;;;;;;6169104;28;80302;-69
2021/05/23 14:40:27;;;;;;;61.63;24.17;;;23.20;43.20;;;;;;6176054;28;80476;-70
2021/05/23 14:43:32;;;;;;;201.82;75.28;;;23.20;43.70;;;;;;6164016;28;83579;-70
2021/05/23 14:46:32;;;;;;;402.77;147.07;;;23.20;44.00;;;;;;6166758;28;83935;-67
2021/05/23 14:49:33;;;;;;;347.83;127.22;;;23.20;44.50;;;;;;6152617;28;86230;-70
2021/05/23 14:52:33;;;;;;;351.73;116.90;;;23.20;44.40;;;;;;6158055;28;85284;-67
2021/05/23 14:55:34;;;;;;;315.58;112.13;;;23.20;44.20;;;;;;6176885;28;85916;-67
2021/05/23 14:58:36;;;;;;;291.80;108.45;;;23.20;43.60;;;;;;6176757;28;97200;-68
2021/05/23 15:01:37;;;;;;;242.32;85.90;;;23.20;43.70;;;;;;6177507;28;85752;-68
2021/05/23 15:04:37;;;;;;;237.65;86.03;;;23.20;43.70;;;;;;6180312;28;85118;-68
2021/05/23 15:07:38;;;;;;;224.10;82.68;;;23.20;43.50;;;;;;6169008;28;83417;-68
2021/05/23 15:10:39;;;;;;;207.98;73.88;;;23.20;43.80;;;;;;6154487;28;83112;-68
2021/05/23 15:13:39;;;;;;;189.00;71.10;;;23.10;43.40;;;;;;6165026;28;84840;-69
2021/05/23 15:16:40;;;;;;;187.32;73.28;;;23.10;43.50;;;;;;6175634;28;83448;-68
2021/05/23 15:19:41;;;;;;;184.45;65.68;;;23.10;43.90;;;;;;6177199;28;83026;-69
2021/05/23 15:22:41;;;;;;;164.65;61.33;;;23.10;43.90;;;;;;6166228;28;82953;-69
2021/05/23 15:25:42;;;;;;;161.43;58.25;;;23.10;44.20;;;;;;6165876;28;84141;-69
2021/05/23 15:32:02;;;;;;;134.05;51.17;;;23.10;43.70;;;;;;6162666;28;83595;-68
2021/05/23 15:35:03;;;;;;;122.25;47.22;;;23.00;43.90;;;;;;6160347;28;83013;-68